sensor_id;sensor_type;location;lat;lon;timestamp;P1;durP1;ratioP1;P2;durP2;ratioP2
74867;SDS011;63419;42.262;12.210;2023-04-03T00:01:29;2.78;;;0.70;;
74867;SDS011;63419;42.262;12.210;2023-04-03T00:03:57;3.25;;;0.50;;
74867;SDS011;63419;42.262;12.210;2023-04-03T00:06:25;3.92;;;0.60;;
74867;SDS011;63419;42.262;12.210;2023-04-03T00:08:57;2.67;;;0.38;;
74867;SDS011;63419;42.262;12.210;2023-04-03T00:13:52;3.53;;;0.38;;
74867;SDS011;63419;42.262;12.210;2023-04-03T00:16:20;3.25;;;0.60;;
74867;SDS011;63419;42.262;12.210;2023-04-03T00:18:51;2.60;;;0.52;;
74867;SDS011;63419;42.262;12.210;2023-04-03T00:21:18;3.58;;;0.77;;
74867;SDS011;63419;42.262;12.210;2023-04-03T00:23:46;4.65;;;0.50;;
74867;SDS011;63419;42.262;12.210;2023-04-03T00:26:14;2.28;;;0.40;;
74867;SDS011;63419;42.262;12.210;2023-04-03T00:28:44;2.20;;;0.40;;
74867;SDS011;63419;42.262;12.210;2023-04-03T00:31:13;3.40;;;0.35;;
74867;SDS011;63419;42.262;12.210;2023-04-03T00:36:13;1.63;;;0.32;;
74867;SDS011;63419;42.262;12.210;2023-04-03T00:38:40;2.60;;;0.50;;
74867;SDS011;63419;42.262;12.210;2023-04-03T00:41:08;2.50;;;0.50;;
74867;SDS011;63419;42.262;12.210;2023-04-03T00:43:43;2.70;;;0.30;;
74867;SDS011;63419;42.262;12.210;2023-04-03T00:46:11;2.50;;;0.82;;
74867;SDS011;63419;42.262;12.210;2023-04-03T00:51:14;2.33;;;0.43;;
74867;SDS011;63419;42.262;12.210;2023-04-03T00:56:25;1.83;;;0.40;;
74867;SDS011;63419;42.262;12.210;2023-04-03T00:58:59;2.30;;;0.30;;
74867;SDS011;63419;42.262;12.210;2023-04-03T01:01:34;2.78;;;0.73;;
74867;SDS011;63419;42.262;12.210;2023-04-03T01:04:04;1.75;;;0.32;;
74867;SDS011;63419;42.262;12.210;2023-04-03T01:06:53;1.55;;;0.28;;
74867;SDS011;63419;42.262;12.210;2023-04-03T01:09:27;2.63;;;0.50;;
74867;SDS011;63419;42.262;12.210;2023-04-03T01:14:34;3.17;;;0.30;;
74867;SDS011;63419;42.262;12.210;2023-04-03T01:17:02;2.70;;;0.45;;
74867;SDS011;63419;42.262;12.210;2023-04-03T01:24:36;2.08;;;0.40;;
74867;SDS011;63419;42.262;12.210;2023-04-03T01:27:06;1.60;;;0.40;;
74867;SDS011;63419;42.262;12.210;2023-04-03T01:29:38;2.05;;;0.30;;
74867;SDS011;63419;42.262;12.210;2023-04-03T01:32:09;2.75;;;0.40;;
74867;SDS011;63419;42.262;12.210;2023-04-03T01:34:37;3.67;;;0.40;;
74867;SDS011;63419;42.262;12.210;2023-04-03T01:37:04;3.40;;;0.80;;
74867;SDS011;63419;42.262;12.210;2023-04-03T01:39:32;1.73;;;0.30;;
74867;SDS011;63419;42.262;12.210;2023-04-03T01:42:10;3.00;;;0.30;;
74867;SDS011;63419;42.262;12.210;2023-04-03T01:44:38;2.90;;;0.30;;
74867;SDS011;63419;42.262;12.210;2023-04-03T01:47:06;2.40;;;0.43;;
74867;SDS011;63419;42.262;12.210;2023-04-03T01:49:37;2.03;;;0.50;;
74867;SDS011;63419;42.262;12.210;2023-04-03T01:54:32;1.70;;;0.45;;
74867;SDS011;63419;42.262;12.210;2023-04-03T01:56:59;1.63;;;0.30;;
74867;SDS011;63419;42.262;12.210;2023-04-03T02:01:54;2.10;;;0.30;;
74867;SDS011;63419;42.262;12.210;2023-04-03T02:06:51;2.58;;;0.40;;
74867;SDS011;63419;42.262;12.210;2023-04-03T02:11:46;1.67;;;0.30;;
74867;SDS011;63419;42.262;12.210;2023-04-03T02:14:13;2.15;;;0.20;;
74867;SDS011;63419;42.262;12.210;2023-04-03T02:16:41;3.00;;;0.40;;
74867;SDS011;63419;42.262;12.210;2023-04-03T02:21:36;3.50;;;0.70;;
74867;SDS011;63419;42.262;12.210;2023-04-03T02:24:04;2.55;;;0.43;;
74867;SDS011;63419;42.262;12.210;2023-04-03T02:26:32;1.73;;;0.38;;
74867;SDS011;63419;42.262;12.210;2023-04-03T02:31:30;2.30;;;0.30;;
74867;SDS011;63419;42.262;12.210;2023-04-03T02:33:58;1.52;;;0.30;;
74867;SDS011;63419;42.262;12.210;2023-04-03T02:36:25;3.25;;;0.63;;
74867;SDS011;63419;42.262;12.210;2023-04-03T02:38:58;3.15;;;1.00;;
74867;SDS011;63419;42.262;12.210;2023-04-03T02:41:25;2.75;;;0.47;;
74867;SDS011;63419;42.262;12.210;2023-04-03T02:44:00;3.05;;;0.40;;
74867;SDS011;63419;42.262;12.210;2023-04-03T02:46:29;2.50;;;0.40;;
74867;SDS011;63419;42.262;12.210;2023-04-03T02:48:56;2.92;;;0.40;;
74867;SDS011;63419;42.262;12.210;2023-04-03T02:53:52;2.28;;;0.40;;
74867;SDS011;63419;42.262;12.210;2023-04-03T02:56:19;3.28;;;0.55;;
74867;SDS011;63419;42.262;12.210;2023-04-03T02:58:47;1.83;;;0.43;;
74867;SDS011;63419;42.262;12.210;2023-04-03T03:01:22;2.20;;;0.40;;
74867;SDS011;63419;42.262;12.210;2023-04-03T03:03:51;2.20;;;0.43;;
74867;SDS011;63419;42.262;12.210;2023-04-03T03:08:50;3.08;;;0.70;;
74867;SDS011;63419;42.262;12.210;2023-04-03T03:13:48;2.42;;;0.45;;
74867;SDS011;63419;42.262;12.210;2023-04-03T03:16:15;1.58;;;0.20;;
74867;SDS011;63419;42.262;12.210;2023-04-03T03:18:43;2.65;;;0.60;;
74867;SDS011;63419;42.262;12.210;2023-04-03T03:21:11;1.50;;;0.22;;
74867;SDS011;63419;42.262;12.210;2023-04-03T03:23:39;1.58;;;0.30;;
74867;SDS011;63419;42.262;12.210;2023-04-03T03:26:09;2.58;;;0.45;;
74867;SDS011;63419;42.262;12.210;2023-04-03T03:28:38;3.42;;;0.50;;
74867;SDS011;63419;42.262;12.210;2023-04-03T03:31:07;1.85;;;0.38;;
74867;SDS011;63419;42.262;12.210;2023-04-03T03:33:37;1.98;;;0.38;;
74867;SDS011;63419;42.262;12.210;2023-04-03T03:36:05;3.95;;;0.75;;
74867;SDS011;63419;42.262;12.210;2023-04-03T03:38:33;3.33;;;0.52;;
74867;SDS011;63419;42.262;12.210;2023-04-03T03:41:01;2.63;;;0.50;;
74867;SDS011;63419;42.262;12.210;2023-04-03T03:43:28;2.67;;;0.52;;
74867;SDS011;63419;42.262;12.210;2023-04-03T03:45:57;2.50;;;0.22;;
74867;SDS011;63419;42.262;12.210;2023-04-03T03:48:31;2.08;;;0.30;;
74867;SDS011;63419;42.262;12.210;2023-04-03T03:50:58;2.40;;;0.55;;
74867;SDS011;63419;42.262;12.210;2023-04-03T03:55:53;3.88;;;0.57;;
74867;SDS011;63419;42.262;12.210;2023-04-03T04:00:49;1.75;;;0.20;;
74867;SDS011;63419;42.262;12.210;2023-04-03T04:03:17;2.38;;;0.60;;
74867;SDS011;63419;42.262;12.210;2023-04-03T04:08:11;2.90;;;0.68;;
74867;SDS011;63419;42.262;12.210;2023-04-03T04:10:42;2.15;;;0.32;;
74867;SDS011;63419;42.262;12.210;2023-04-03T04:15:43;1.70;;;0.30;;
74867;SDS011;63419;42.262;12.210;2023-04-03T04:18:11;3.10;;;0.47;;
74867;SDS011;63419;42.262;12.210;2023-04-03T04:20:38;2.33;;;0.30;;
74867;SDS011;63419;42.262;12.210;2023-04-03T04:25:36;2.60;;;0.50;;
74867;SDS011;63419;42.262;12.210;2023-04-03T04:28:04;2.42;;;0.50;;
74867;SDS011;63419;42.262;12.210;2023-04-03T04:30:32;3.70;;;0.40;;
74867;SDS011;63419;42.262;12.210;2023-04-03T04:35:27;2.95;;;0.50;;
74867;SDS011;63419;42.262;12.210;2023-04-03T04:37:55;1.67;;;0.30;;
74867;SDS011;63419;42.262;12.210;2023-04-03T04:40:23;1.60;;;0.30;;
74867;SDS011;63419;42.262;12.210;2023-04-03T04:42:51;4.35;;;0.40;;
74867;SDS011;63419;42.262;12.210;2023-04-03T04:47:54;3.20;;;0.30;;
74867;SDS011;63419;42.262;12.210;2023-04-03T04:50:22;3.55;;;0.80;;
74867;SDS011;63419;42.262;12.210;2023-04-03T04:55:17;2.28;;;0.43;;
74867;SDS011;63419;42.262;12.210;2023-04-03T04:57:46;1.48;;;0.30;;
74867;SDS011;63419;42.262;12.210;2023-04-03T05:00:14;1.50;;;0.30;;
74867;SDS011;63419;42.262;12.210;2023-04-03T05:02:43;3.30;;;0.40;;
74867;SDS011;63419;42.262;12.210;2023-04-03T05:05:10;4.07;;;0.50;;
74867;SDS011;63419;42.262;12.210;2023-04-03T05:10:09;2.22;;;0.35;;
74867;SDS011;63419;42.262;12.210;2023-04-03T05:12:37;4.10;;;0.40;;
74867;SDS011;63419;42.262;12.210;2023-04-03T05:15:18;6.70;;;0.50;;
74867;SDS011;63419;42.262;12.210;2023-04-03T05:18:00;2.38;;;0.45;;
74867;SDS011;63419;42.262;12.210;2023-04-03T05:20:33;2.50;;;0.40;;
74867;SDS011;63419;42.262;12.210;2023-04-03T05:23:02;2.72;;;0.40;;
74867;SDS011;63419;42.262;12.210;2023-04-03T05:25:40;2.90;;;0.50;;
74867;SDS011;63419;42.262;12.210;2023-04-03T05:28:22;3.55;;;0.40;;
74867;SDS011;63419;42.262;12.210;2023-04-03T05:30:53;4.03;;;0.68;;
74867;SDS011;63419;42.262;12.210;2023-04-03T05:33:26;1.90;;;0.40;;
74867;SDS011;63419;42.262;12.210;2023-04-03T05:36:04;2.28;;;0.38;;
74867;SDS011;63419;42.262;12.210;2023-04-03T05:38:35;4.45;;;0.50;;
74867;SDS011;63419;42.262;12.210;2023-04-03T05:43:29;2.63;;;0.45;;
74867;SDS011;63419;42.262;12.210;2023-04-03T05:46:13;1.50;;;0.38;;
74867;SDS011;63419;42.262;12.210;2023-04-03T05:49:15;2.35;;;0.40;;
74867;SDS011;63419;42.262;12.210;2023-04-03T05:51:50;1.50;;;0.25;;
74867;SDS011;63419;42.262;12.210;2023-04-03T05:57:15;2.55;;;0.60;;
74867;SDS011;63419;42.262;12.210;2023-04-03T05:59:53;1.92;;;0.30;;
74867;SDS011;63419;42.262;12.210;2023-04-03T06:02:29;4.40;;;0.68;;
74867;SDS011;63419;42.262;12.210;2023-04-03T06:04:57;2.50;;;0.50;;
74867;SDS011;63419;42.262;12.210;2023-04-03T06:09:56;1.95;;;0.45;;
74867;SDS011;63419;42.262;12.210;2023-04-03T06:12:26;2.17;;;0.52;;
74867;SDS011;63419;42.262;12.210;2023-04-03T06:15:04;3.17;;;0.60;;
74867;SDS011;63419;42.262;12.210;2023-04-03T06:17:32;5.75;;;0.95;;
74867;SDS011;63419;42.262;12.210;2023-04-03T06:20:05;1.80;;;0.35;;
74867;SDS011;63419;42.262;12.210;2023-04-03T06:22:44;1.95;;;0.30;;
74867;SDS011;63419;42.262;12.210;2023-04-03T06:25:12;1.92;;;0.35;;
74867;SDS011;63419;42.262;12.210;2023-04-03T06:27:42;2.47;;;0.40;;
74867;SDS011;63419;42.262;12.210;2023-04-03T06:32:38;2.20;;;0.63;;
74867;SDS011;63419;42.262;12.210;2023-04-03T06:35:11;4.30;;;1.17;;
74867;SDS011;63419;42.262;12.210;2023-04-03T06:37:41;3.60;;;0.93;;
74867;SDS011;63419;42.262;12.210;2023-04-03T06:40:13;5.43;;;0.63;;
74867;SDS011;63419;42.262;12.210;2023-04-03T06:42:52;2.38;;;0.50;;
74867;SDS011;63419;42.262;12.210;2023-04-03T06:45:24;2.92;;;0.52;;
74867;SDS011;63419;42.262;12.210;2023-04-03T06:47:54;2.17;;;0.57;;
74867;SDS011;63419;42.262;12.210;2023-04-03T06:50:29;2.60;;;0.50;;
74867;SDS011;63419;42.262;12.210;2023-04-03T06:53:01;2.28;;;0.45;;
74867;SDS011;63419;42.262;12.210;2023-04-03T06:55:31;2.30;;;0.43;;
74867;SDS011;63419;42.262;12.210;2023-04-03T06:57:59;3.05;;;0.80;;
74867;SDS011;63419;42.262;12.210;2023-04-03T07:00:38;1.85;;;0.47;;
74867;SDS011;63419;42.262;12.210;2023-04-03T07:03:07;1.70;;;0.32;;
74867;SDS011;63419;42.262;12.210;2023-04-03T07:05:49;1.98;;;0.43;;
74867;SDS011;63419;42.262;12.210;2023-04-03T07:08:19;4.90;;;0.70;;
74867;SDS011;63419;42.262;12.210;2023-04-03T07:10:51;2.70;;;0.55;;
74867;SDS011;63419;42.262;12.210;2023-04-03T07:13:28;3.65;;;0.60;;
74867;SDS011;63419;42.262;12.210;2023-04-03T07:15:55;2.47;;;0.50;;
74867;SDS011;63419;42.262;12.210;2023-04-03T07:18:28;4.20;;;0.43;;
74867;SDS011;63419;42.262;12.210;2023-04-03T07:20:59;6.20;;;1.58;;
74867;SDS011;63419;42.262;12.210;2023-04-03T07:23:27;2.75;;;0.60;;
74867;SDS011;63419;42.262;12.210;2023-04-03T07:25:54;3.65;;;0.50;;
74867;SDS011;63419;42.262;12.210;2023-04-03T07:28:26;1.92;;;0.40;;
74867;SDS011;63419;42.262;12.210;2023-04-03T07:30:59;2.67;;;0.50;;
74867;SDS011;63419;42.262;12.210;2023-04-03T07:33:36;2.00;;;0.50;;
74867;SDS011;63419;42.262;12.210;2023-04-03T07:36:08;1.00;;;0.25;;
74867;SDS011;63419;42.262;12.210;2023-04-03T07:38:47;2.25;;;0.30;;
74867;SDS011;63419;42.262;12.210;2023-04-03T07:41:18;5.10;;;1.92;;
74867;SDS011;63419;42.262;12.210;2023-04-03T07:43:52;2.50;;;0.32;;
74867;SDS011;63419;42.262;12.210;2023-04-03T07:46:28;2.72;;;0.57;;
74867;SDS011;63419;42.262;12.210;2023-04-03T07:48:57;3.10;;;0.73;;
74867;SDS011;63419;42.262;12.210;2023-04-03T07:51:28;1.67;;;0.45;;
74867;SDS011;63419;42.262;12.210;2023-04-03T07:53:56;2.20;;;0.50;;
74867;SDS011;63419;42.262;12.210;2023-04-03T07:56:27;3.53;;;0.55;;
74867;SDS011;63419;42.262;12.210;2023-04-03T07:58:57;7.97;;;1.65;;
74867;SDS011;63419;42.262;12.210;2023-04-03T08:01:26;5.13;;;0.98;;
74867;SDS011;63419;42.262;12.210;2023-04-03T08:03:54;11.52;;;3.20;;
74867;SDS011;63419;42.262;12.210;2023-04-03T08:06:24;7.63;;;2.22;;
74867;SDS011;63419;42.262;12.210;2023-04-03T08:09:11;7.25;;;1.77;;
74867;SDS011;63419;42.262;12.210;2023-04-03T08:11:42;10.32;;;1.63;;
74867;SDS011;63419;42.262;12.210;2023-04-03T08:14:22;3.65;;;0.77;;
74867;SDS011;63419;42.262;12.210;2023-04-03T08:16:53;5.43;;;1.42;;
74867;SDS011;63419;42.262;12.210;2023-04-03T08:21:52;2.95;;;0.50;;
74867;SDS011;63419;42.262;12.210;2023-04-03T08:24:35;1.70;;;0.30;;
74867;SDS011;63419;42.262;12.210;2023-04-03T08:27:24;4.88;;;0.70;;
74867;SDS011;63419;42.262;12.210;2023-04-03T08:29:53;4.53;;;1.55;;
74867;SDS011;63419;42.262;12.210;2023-04-03T08:32:33;3.85;;;0.82;;
74867;SDS011;63419;42.262;12.210;2023-04-03T08:35:03;1.80;;;0.35;;
74867;SDS011;63419;42.262;12.210;2023-04-03T08:37:37;3.95;;;0.63;;
74867;SDS011;63419;42.262;12.210;2023-04-03T08:40:15;3.03;;;0.80;;
74867;SDS011;63419;42.262;12.210;2023-04-03T08:42:49;6.50;;;1.25;;
74867;SDS011;63419;42.262;12.210;2023-04-03T08:45:57;5.93;;;1.00;;
74867;SDS011;63419;42.262;12.210;2023-04-03T08:48:33;4.43;;;1.00;;
74867;SDS011;63419;42.262;12.210;2023-04-03T08:51:14;4.25;;;0.90;;
74867;SDS011;63419;42.262;12.210;2023-04-03T08:53:57;9.75;;;1.75;;
74867;SDS011;63419;42.262;12.210;2023-04-03T08:56:39;5.72;;;1.10;;
74867;SDS011;63419;42.262;12.210;2023-04-03T08:59:10;7.05;;;2.17;;
74867;SDS011;63419;42.262;12.210;2023-04-03T09:01:48;3.78;;;0.80;;
74867;SDS011;63419;42.262;12.210;2023-04-03T09:04:21;7.38;;;1.20;;
74867;SDS011;63419;42.262;12.210;2023-04-03T09:06:56;4.75;;;1.38;;
74867;SDS011;63419;42.262;12.210;2023-04-03T09:09:50;7.50;;;2.55;;
74867;SDS011;63419;42.262;12.210;2023-04-03T09:12:53;6.97;;;2.45;;
74867;SDS011;63419;42.262;12.210;2023-04-03T09:15:24;4.50;;;0.68;;
74867;SDS011;63419;42.262;12.210;2023-04-03T09:18:06;2.90;;;0.82;;
74867;SDS011;63419;42.262;12.210;2023-04-03T09:23:50;4.10;;;0.85;;
74867;SDS011;63419;42.262;12.210;2023-04-03T09:26:36;13.45;;;3.60;;
74867;SDS011;63419;42.262;12.210;2023-04-03T09:29:21;9.43;;;2.80;;
74867;SDS011;63419;42.262;12.210;2023-04-03T09:31:58;11.60;;;3.35;;
74867;SDS011;63419;42.262;12.210;2023-04-03T09:34:35;13.73;;;3.30;;
74867;SDS011;63419;42.262;12.210;2023-04-03T09:37:42;12.13;;;3.42;;
74867;SDS011;63419;42.262;12.210;2023-04-03T09:46:31;6.63;;;1.60;;
74867;SDS011;63419;42.262;12.210;2023-04-03T09:49:02;10.45;;;2.50;;
74867;SDS011;63419;42.262;12.210;2023-04-03T09:51:35;11.40;;;2.40;;
74867;SDS011;63419;42.262;12.210;2023-04-03T09:54:23;4.20;;;0.90;;
74867;SDS011;63419;42.262;12.210;2023-04-03T09:57:06;5.38;;;0.90;;
74867;SDS011;63419;42.262;12.210;2023-04-03T10:00:02;6.05;;;1.70;;
74867;SDS011;63419;42.262;12.210;2023-04-03T10:03:25;10.60;;;2.28;;
74867;SDS011;63419;42.262;12.210;2023-04-03T10:06:24;10.38;;;1.92;;
74867;SDS011;63419;42.262;12.210;2023-04-03T10:09:54;10.73;;;1.70;;
74867;SDS011;63419;42.262;12.210;2023-04-03T10:12:32;6.10;;;1.00;;
74867;SDS011;63419;42.262;12.210;2023-04-03T10:15:00;6.78;;;1.20;;
74867;SDS011;63419;42.262;12.210;2023-04-03T10:26:32;11.23;;;3.50;;
74867;SDS011;63419;42.262;12.210;2023-04-03T10:29:30;9.65;;;2.42;;
74867;SDS011;63419;42.262;12.210;2023-04-03T10:32:26;8.57;;;2.22;;
74867;SDS011;63419;42.262;12.210;2023-04-03T10:47:46;7.30;;;1.02;;
74867;SDS011;63419;42.262;12.210;2023-04-03T10:54:24;3.97;;;0.98;;
74867;SDS011;63419;42.262;12.210;2023-04-03T10:57:06;2.83;;;0.52;;
74867;SDS011;63419;42.262;12.210;2023-04-03T10:59:47;2.85;;;0.82;;
74867;SDS011;63419;42.262;12.210;2023-04-03T11:05:35;6.65;;;1.70;;
74867;SDS011;63419;42.262;12.210;2023-04-03T11:10:55;5.32;;;1.05;;
74867;SDS011;63419;42.262;12.210;2023-04-03T11:13:36;4.45;;;0.60;;
74867;SDS011;63419;42.262;12.210;2023-04-03T11:16:45;6.82;;;1.90;;
74867;SDS011;63419;42.262;12.210;2023-04-03T11:19:21;5.63;;;1.35;;
74867;SDS011;63419;42.262;12.210;2023-04-03T11:22:23;6.07;;;1.05;;
74867;SDS011;63419;42.262;12.210;2023-04-03T11:27:43;3.70;;;0.88;;
74867;SDS011;63419;42.262;12.210;2023-04-03T11:36:47;3.53;;;0.77;;
74867;SDS011;63419;42.262;12.210;2023-04-03T11:44:50;4.03;;;0.90;;
74867;SDS011;63419;42.262;12.210;2023-04-03T11:47:44;6.20;;;1.50;;
74867;SDS011;63419;42.262;12.210;2023-04-03T12:00:51;6.20;;;1.55;;
74867;SDS011;63419;42.262;12.210;2023-04-03T12:04:08;4.00;;;0.63;;
74867;SDS011;63419;42.262;12.210;2023-04-03T12:09:27;6.22;;;1.40;;
74867;SDS011;63419;42.262;12.210;2023-04-03T12:12:33;9.20;;;1.75;;
74867;SDS011;63419;42.262;12.210;2023-04-03T12:15:18;5.47;;;1.23;;
74867;SDS011;63419;42.262;12.210;2023-04-03T12:17:56;6.35;;;1.23;;
74867;SDS011;63419;42.262;12.210;2023-04-03T12:25:59;5.95;;;1.58;;
74867;SDS011;63419;42.262;12.210;2023-04-03T12:28:38;7.93;;;2.00;;
74867;SDS011;63419;42.262;12.210;2023-04-03T12:31:14;4.55;;;1.23;;
74867;SDS011;63419;42.262;12.210;2023-04-03T12:45:17;10.30;;;1.25;;
74867;SDS011;63419;42.262;12.210;2023-04-03T12:50:29;5.43;;;1.10;;
74867;SDS011;63419;42.262;12.210;2023-04-03T12:53:01;4.85;;;0.93;;
74867;SDS011;63419;42.262;12.210;2023-04-03T12:55:45;6.75;;;1.20;;
74867;SDS011;63419;42.262;12.210;2023-04-03T12:58:26;3.42;;;0.70;;
74867;SDS011;63419;42.262;12.210;2023-04-03T13:01:11;5.72;;;0.93;;
74867;SDS011;63419;42.262;12.210;2023-04-03T13:03:50;5.03;;;1.20;;
74867;SDS011;63419;42.262;12.210;2023-04-03T13:06:38;5.13;;;0.93;;
74867;SDS011;63419;42.262;12.210;2023-04-03T13:09:25;8.73;;;2.08;;
74867;SDS011;63419;42.262;12.210;2023-04-03T13:12:03;5.40;;;1.00;;
74867;SDS011;63419;42.262;12.210;2023-04-03T13:14:39;4.95;;;1.00;;
74867;SDS011;63419;42.262;12.210;2023-04-03T13:17:26;5.25;;;1.20;;
74867;SDS011;63419;42.262;12.210;2023-04-03T13:20:17;7.60;;;1.38;;
74867;SDS011;63419;42.262;12.210;2023-04-03T13:22:58;6.93;;;1.10;;
74867;SDS011;63419;42.262;12.210;2023-04-03T13:25:50;8.50;;;1.30;;
74867;SDS011;63419;42.262;12.210;2023-04-03T13:28:30;5.57;;;0.95;;
74867;SDS011;63419;42.262;12.210;2023-04-03T13:33:54;3.88;;;0.80;;
74867;SDS011;63419;42.262;12.210;2023-04-03T13:41:49;3.95;;;0.70;;
74867;SDS011;63419;42.262;12.210;2023-04-03T13:46:49;6.28;;;1.10;;
74867;SDS011;63419;42.262;12.210;2023-04-03T13:52:20;5.45;;;1.60;;
74867;SDS011;63419;42.262;12.210;2023-04-03T13:55:00;6.30;;;0.85;;
74867;SDS011;63419;42.262;12.210;2023-04-03T13:57:56;5.93;;;0.90;;
74867;SDS011;63419;42.262;12.210;2023-04-03T14:00:38;6.43;;;0.90;;
74867;SDS011;63419;42.262;12.210;2023-04-03T14:05:53;7.60;;;1.30;;
74867;SDS011;63419;42.262;12.210;2023-04-03T14:08:49;5.38;;;1.35;;
74867;SDS011;63419;42.262;12.210;2023-04-03T14:11:24;4.25;;;1.08;;
74867;SDS011;63419;42.262;12.210;2023-04-03T14:14:02;4.38;;;0.73;;
74867;SDS011;63419;42.262;12.210;2023-04-03T14:16:40;6.43;;;1.33;;
74867;SDS011;63419;42.262;12.210;2023-04-03T14:19:18;9.45;;;1.00;;
74867;SDS011;63419;42.262;12.210;2023-04-03T14:21:55;3.83;;;0.80;;
74867;SDS011;63419;42.262;12.210;2023-04-03T14:24:33;5.10;;;0.95;;
74867;SDS011;63419;42.262;12.210;2023-04-03T14:27:03;4.35;;;0.70;;
74867;SDS011;63419;42.262;12.210;2023-04-03T14:29:42;5.60;;;0.98;;
74867;SDS011;63419;42.262;12.210;2023-04-03T14:32:12;3.08;;;0.60;;
74867;SDS011;63419;42.262;12.210;2023-04-03T14:34:46;5.22;;;0.70;;
74867;SDS011;63419;42.262;12.210;2023-04-03T14:37:18;6.38;;;0.90;;
74867;SDS011;63419;42.262;12.210;2023-04-03T14:39:52;6.32;;;0.90;;
74867;SDS011;63419;42.262;12.210;2023-04-03T14:42:25;5.80;;;0.90;;
74867;SDS011;63419;42.262;12.210;2023-04-03T14:44:59;3.55;;;0.80;;
74867;SDS011;63419;42.262;12.210;2023-04-03T14:47:34;5.68;;;1.02;;
74867;SDS011;63419;42.262;12.210;2023-04-03T14:50:14;6.18;;;0.95;;
74867;SDS011;63419;42.262;12.210;2023-04-03T14:52:56;8.30;;;1.23;;
74867;SDS011;63419;42.262;12.210;2023-04-03T14:55:28;4.78;;;0.70;;
74867;SDS011;63419;42.262;12.210;2023-04-03T14:57:57;4.63;;;0.80;;
74867;SDS011;63419;42.262;12.210;2023-04-03T15:00:24;6.28;;;1.00;;
74867;SDS011;63419;42.262;12.210;2023-04-03T15:02:52;5.82;;;0.80;;
74867;SDS011;63419;42.262;12.210;2023-04-03T15:05:32;9.68;;;0.80;;
74867;SDS011;63419;42.262;12.210;2023-04-03T15:08:02;4.28;;;0.80;;
74867;SDS011;63419;42.262;12.210;2023-04-03T15:10:42;4.80;;;1.05;;
74867;SDS011;63419;42.262;12.210;2023-04-03T15:13:15;3.97;;;0.75;;
74867;SDS011;63419;42.262;12.210;2023-04-03T15:15:43;7.82;;;0.90;;
74867;SDS011;63419;42.262;12.210;2023-04-03T15:18:15;3.83;;;0.93;;
74867;SDS011;63419;42.262;12.210;2023-04-03T15:20:49;5.15;;;0.93;;
74867;SDS011;63419;42.262;12.210;2023-04-03T15:23:17;5.45;;;0.90;;
74867;SDS011;63419;42.262;12.210;2023-04-03T15:25:46;5.88;;;1.10;;
74867;SDS011;63419;42.262;12.210;2023-04-03T15:28:18;3.60;;;0.80;;
74867;SDS011;63419;42.262;12.210;2023-04-03T15:31:06;2.42;;;0.52;;
74867;SDS011;63419;42.262;12.210;2023-04-03T15:33:35;4.90;;;0.95;;
74867;SDS011;63419;42.262;12.210;2023-04-03T15:36:05;5.65;;;1.60;;
74867;SDS011;63419;42.262;12.210;2023-04-03T15:38:54;7.05;;;1.15;;
74867;SDS011;63419;42.262;12.210;2023-04-03T15:41:22;5.28;;;1.27;;
74867;SDS011;63419;42.262;12.210;2023-04-03T15:43:50;6.93;;;1.50;;
74867;SDS011;63419;42.262;12.210;2023-04-03T15:46:18;5.18;;;1.02;;
74867;SDS011;63419;42.262;12.210;2023-04-03T15:48:48;6.45;;;0.85;;
74867;SDS011;63419;42.262;12.210;2023-04-03T15:51:17;4.50;;;0.90;;
74867;SDS011;63419;42.262;12.210;2023-04-03T15:53:46;6.47;;;1.23;;
74867;SDS011;63419;42.262;12.210;2023-04-03T15:56:16;3.83;;;0.82;;
74867;SDS011;63419;42.262;12.210;2023-04-03T15:58:44;5.00;;;0.80;;
74867;SDS011;63419;42.262;12.210;2023-04-03T16:01:30;5.18;;;0.80;;
74867;SDS011;63419;42.262;12.210;2023-04-03T16:04:08;5.82;;;0.80;;
74867;SDS011;63419;42.262;12.210;2023-04-03T16:06:41;12.65;;;4.30;;
74867;SDS011;63419;42.262;12.210;2023-04-03T16:09:12;3.22;;;0.70;;
74867;SDS011;63419;42.262;12.210;2023-04-03T16:11:44;5.68;;;1.42;;
74867;SDS011;63419;42.262;12.210;2023-04-03T16:14:15;7.30;;;1.13;;
74867;SDS011;63419;42.262;12.210;2023-04-03T16:16:45;4.85;;;0.80;;
74867;SDS011;63419;42.262;12.210;2023-04-03T16:19:13;9.15;;;0.80;;
74867;SDS011;63419;42.262;12.210;2023-04-03T16:21:40;3.88;;;0.52;;
74867;SDS011;63419;42.262;12.210;2023-04-03T16:24:09;5.22;;;0.88;;
74867;SDS011;63419;42.262;12.210;2023-04-03T16:26:47;4.10;;;1.10;;
74867;SDS011;63419;42.262;12.210;2023-04-03T16:29:14;4.68;;;1.23;;
74867;SDS011;63419;42.262;12.210;2023-04-03T16:31:47;8.70;;;1.52;;
74867;SDS011;63419;42.262;12.210;2023-04-03T16:34:21;7.07;;;1.20;;
74867;SDS011;63419;42.262;12.210;2023-04-03T16:36:50;8.18;;;1.67;;
74867;SDS011;63419;42.262;12.210;2023-04-03T16:39:31;4.40;;;1.20;;
74867;SDS011;63419;42.262;12.210;2023-04-03T16:42:12;6.55;;;1.30;;
74867;SDS011;63419;42.262;12.210;2023-04-03T16:44:40;7.88;;;2.60;;
74867;SDS011;63419;42.262;12.210;2023-04-03T16:47:13;4.88;;;1.15;;
74867;SDS011;63419;42.262;12.210;2023-04-03T16:49:46;6.15;;;1.73;;
74867;SDS011;63419;42.262;12.210;2023-04-03T16:52:15;7.15;;;1.90;;
74867;SDS011;63419;42.262;12.210;2023-04-03T16:54:44;7.43;;;1.83;;
74867;SDS011;63419;42.262;12.210;2023-04-03T16:57:12;5.95;;;1.13;;
74867;SDS011;63419;42.262;12.210;2023-04-03T16:59:42;11.60;;;1.67;;
74867;SDS011;63419;42.262;12.210;2023-04-03T17:02:15;8.07;;;1.85;;
74867;SDS011;63419;42.262;12.210;2023-04-03T17:04:54;6.22;;;1.50;;
74867;SDS011;63419;42.262;12.210;2023-04-03T17:07:23;7.65;;;1.80;;
74867;SDS011;63419;42.262;12.210;2023-04-03T17:09:52;6.85;;;2.17;;
74867;SDS011;63419;42.262;12.210;2023-04-03T17:12:21;11.02;;;1.92;;
74867;SDS011;63419;42.262;12.210;2023-04-03T17:14:49;7.13;;;2.08;;
74867;SDS011;63419;42.262;12.210;2023-04-03T17:19:56;6.72;;;1.50;;
74867;SDS011;63419;42.262;12.210;2023-04-03T17:22:25;5.97;;;1.63;;
74867;SDS011;63419;42.262;12.210;2023-04-03T17:25:01;8.07;;;1.20;;
74867;SDS011;63419;42.262;12.210;2023-04-03T17:27:30;7.22;;;1.60;;
74867;SDS011;63419;42.262;12.210;2023-04-03T17:30:00;6.00;;;1.40;;
74867;SDS011;63419;42.262;12.210;2023-04-03T17:34:57;5.57;;;1.33;;
74867;SDS011;63419;42.262;12.210;2023-04-03T17:37:24;5.35;;;1.45;;
74867;SDS011;63419;42.262;12.210;2023-04-03T17:39:52;6.20;;;1.23;;
74867;SDS011;63419;42.262;12.210;2023-04-03T17:44:48;4.38;;;0.98;;
74867;SDS011;63419;42.262;12.210;2023-04-03T17:47:16;5.82;;;0.80;;
74867;SDS011;63419;42.262;12.210;2023-04-03T17:49:46;4.45;;;0.93;;
74867;SDS011;63419;42.262;12.210;2023-04-03T17:52:15;6.47;;;1.42;;
74867;SDS011;63419;42.262;12.210;2023-04-03T17:54:43;6.55;;;0.80;;
74867;SDS011;63419;42.262;12.210;2023-04-03T17:57:13;8.32;;;1.40;;
74867;SDS011;63419;42.262;12.210;2023-04-03T17:59:42;4.38;;;1.02;;
74867;SDS011;63419;42.262;12.210;2023-04-03T18:02:12;9.38;;;1.98;;
74867;SDS011;63419;42.262;12.210;2023-04-03T18:04:43;6.88;;;1.80;;
74867;SDS011;63419;42.262;12.210;2023-04-03T18:07:12;8.18;;;1.73;;
74867;SDS011;63419;42.262;12.210;2023-04-03T18:09:39;6.43;;;1.23;;
74867;SDS011;63419;42.262;12.210;2023-04-03T18:12:09;5.28;;;1.30;;
74867;SDS011;63419;42.262;12.210;2023-04-03T18:14:42;3.28;;;0.88;;
74867;SDS011;63419;42.262;12.210;2023-04-03T18:17:11;6.57;;;1.42;;
74867;SDS011;63419;42.262;12.210;2023-04-03T18:19:40;4.72;;;1.05;;
74867;SDS011;63419;42.262;12.210;2023-04-03T18:24:39;4.75;;;1.13;;